createdAt,value
2018-06-28T00:00:06.606Z,1012.93
2018-06-28T00:01:06.538Z,1012.92
2018-06-28T00:02:06.490Z,1012.93
2018-06-28T00:03:06.444Z,1012.91
2018-06-28T00:04:06.396Z,1012.91
2018-06-28T00:05:06.373Z,1012.95
2018-06-28T00:06:06.302Z,1012.97
2018-06-28T00:07:06.260Z,1012.95
2018-06-28T00:08:06.214Z,1012.96
2018-06-28T00:09:06.165Z,1012.96
2018-06-28T00:10:06.150Z,1012.97
2018-06-28T00:11:06.079Z,1012.95
2018-06-28T00:12:06.027Z,1012.99
2018-06-28T00:13:05.982Z,1012.98
2018-06-28T00:14:05.944Z,1012.96
2018-06-28T00:15:05.915Z,1012.98
2018-06-28T00:16:05.843Z,1012.95
2018-06-28T00:17:05.800Z,1012.94
2018-06-28T00:18:05.753Z,1012.98
2018-06-28T00:19:05.707Z,1012.96
2018-06-28T00:20:05.699Z,1012.97
2018-06-28T00:21:05.614Z,1013.00
2018-06-28T00:22:05.569Z,1012.99
2018-06-28T00:23:05.525Z,1013.02
2018-06-28T00:24:05.480Z,1013.00
2018-06-28T00:25:05.434Z,1013.02
2018-06-28T00:26:05.410Z,1013.06
2018-06-28T00:27:05.337Z,1013.03
2018-06-28T00:28:05.290Z,1013.05
2018-06-28T00:29:05.246Z,1013.02
2018-06-28T00:30:05.204Z,1013.03
2018-06-28T00:31:05.177Z,1013.03
2018-06-28T00:32:05.108Z,1013.07
2018-06-28T00:33:05.060Z,1012.99
2018-06-28T00:34:05.015Z,1013.02
2018-06-28T00:35:04.977Z,1012.99
2018-06-28T00:36:04.952Z,1012.99
2018-06-28T00:37:04.880Z,1012.95
2018-06-28T00:38:04.834Z,1012.99
2018-06-28T00:39:04.816Z,1012.97
2018-06-28T00:40:04.737Z,1012.99
2018-06-28T00:41:04.715Z,1012.94
2018-06-28T00:42:04.650Z,1012.98
2018-06-28T00:43:04.607Z,1012.97
2018-06-28T00:44:04.559Z,1012.96
2018-06-28T00:45:04.509Z,1013.00
2018-06-28T00:46:04.488Z,1012.98
2018-06-28T00:47:04.418Z,1013.03
2018-06-28T00:48:04.376Z,1013.04
2018-06-28T00:49:04.339Z,1013.06
2018-06-28T00:50:04.280Z,1013.04
2018-06-28T00:51:04.258Z,1013.05
2018-06-28T00:52:04.191Z,1013.02
2018-06-28T00:53:04.141Z,1013.07
2018-06-28T00:54:04.103Z,1013.06
2018-06-28T00:55:04.049Z,1013.05
2018-06-28T00:56:04.023Z,1013.10
2018-06-28T00:57:03.957Z,1013.07
2018-06-28T00:58:03.909Z,1013.05
2018-06-28T00:59:03.866Z,1013.06
2018-06-28T01:00:03.821Z,1013.05
2018-06-28T01:01:03.795Z,1013.11
2018-06-28T01:02:03.729Z,1013.04
2018-06-28T01:03:03.680Z,1013.11
2018-06-28T01:04:03.636Z,1013.06
2018-06-28T01:05:03.591Z,1013.11
2018-06-28T01:06:03.563Z,1013.07
2018-06-28T01:07:03.497Z,1013.07
2018-06-28T01:08:03.447Z,1013.07
2018-06-28T01:09:03.406Z,1013.08
2018-06-28T01:10:03.355Z,1013.06
2018-06-28T01:11:03.333Z,1013.06
2018-06-28T01:12:03.261Z,1013.02
2018-06-28T01:13:03.217Z,1013.00
2018-06-28T01:14:03.177Z,1013.02
2018-06-28T01:15:03.122Z,1013.01
2018-06-28T01:16:03.103Z,1013.04
2018-06-28T01:17:03.031Z,1013.00
2018-06-28T01:18:02.988Z,1013.03
2018-06-28T01:19:02.938Z,1013.00
2018-06-28T01:20:02.893Z,1012.99
2018-06-28T01:21:02.870Z,1013.01
2018-06-28T01:22:02.799Z,1013.00
2018-06-28T01:23:02.753Z,1013.02
2018-06-28T01:24:02.704Z,1012.99
2018-06-28T01:25:02.657Z,1013.01
2018-06-28T01:26:02.648Z,1012.98
2018-06-28T01:27:02.575Z,1013.00
2018-06-28T01:28:02.520Z,1013.00
2018-06-28T01:29:02.471Z,1012.98
2018-06-28T01:30:02.435Z,1012.94
2018-06-28T01:31:02.402Z,1012.96
2018-06-28T01:32:02.332Z,1012.91
2018-06-28T01:33:02.298Z,1012.95
2018-06-28T01:34:02.251Z,1012.95
2018-06-28T01:35:02.194Z,1012.92
2018-06-28T01:36:02.181Z,1012.94
2018-06-28T01:37:02.104Z,1012.95
2018-06-28T01:38:02.060Z,1012.94
2018-06-28T01:39:02.010Z,1012.92
2018-06-28T01:40:01.966Z,1012.93
2018-06-28T01:41:01.939Z,1012.96
2018-06-28T01:42:01.870Z,1012.97
2018-06-28T01:43:01.824Z,1012.98
2018-06-28T01:44:01.779Z,1012.95
2018-06-28T01:45:01.732Z,1012.99
2018-06-28T01:46:01.708Z,1012.96
2018-06-28T01:47:01.640Z,1012.91
2018-06-28T01:48:01.593Z,1012.96
2018-06-28T01:49:01.546Z,1012.92
2018-06-28T01:50:01.502Z,1012.90
2018-06-28T01:51:01.452Z,1012.90
2018-06-28T01:52:01.431Z,1012.89
2018-06-28T01:53:01.392Z,1012.89
2018-06-28T01:54:01.313Z,1012.89
2018-06-28T01:55:01.268Z,1012.85
2018-06-28T01:56:01.228Z,1012.86
2018-06-28T01:57:01.199Z,1012.88
2018-06-28T01:58:01.125Z,1012.89
2018-06-28T01:59:01.084Z,1012.84
2018-06-28T02:00:01.032Z,1012.88
2018-06-28T02:01:01.001Z,1012.92
2018-06-28T02:02:00.960Z,1012.87
2018-06-28T02:03:00.893Z,1012.91
2018-06-28T02:04:00.847Z,1012.92
2018-06-28T02:05:00.802Z,1012.90
2018-06-28T02:06:00.755Z,1012.91
2018-06-28T02:07:00.733Z,1012.93
2018-06-28T02:08:00.661Z,1012.94
2018-06-28T02:09:00.612Z,1012.94
2018-06-28T02:10:00.573Z,1012.93
2018-06-28T02:11:00.526Z,1012.95
2018-06-28T02:12:00.495Z,1012.93
2018-06-28T02:13:00.426Z,1012.92
2018-06-28T02:14:00.379Z,1012.92
2018-06-28T02:15:00.331Z,1012.92
2018-06-28T02:16:00.289Z,1012.92
2018-06-28T02:17:00.265Z,1012.90
2018-06-28T02:18:00.198Z,1012.92
2018-06-28T02:19:00.154Z,1012.89
2018-06-28T02:20:00.102Z,1012.92
2018-06-28T02:21:00.066Z,1012.93
2018-06-28T02:22:00.034Z,1012.96
2018-06-28T02:22:59.962Z,1013.01
2018-06-28T02:23:59.917Z,1012.96
2018-06-28T02:24:59.872Z,1012.96
2018-06-28T02:25:59.820Z,1012.96
2018-06-28T02:26:59.801Z,1012.98
2018-06-28T02:27:59.730Z,1012.97
2018-06-28T02:28:59.688Z,1012.94
2018-06-28T02:29:59.635Z,1012.98
2018-06-28T02:30:59.588Z,1012.98
2018-06-28T02:31:59.570Z,1012.97
2018-06-28T02:32:59.497Z,1012.95
2018-06-28T02:33:59.448Z,1012.99
2018-06-28T02:34:59.400Z,1012.98
2018-06-28T02:35:59.351Z,1012.98
2018-06-28T02:36:59.330Z,1012.91
2018-06-28T02:37:59.272Z,1012.94
2018-06-28T02:38:59.214Z,1012.94
2018-06-28T02:39:59.168Z,1012.90
2018-06-28T02:40:59.121Z,1012.96
2018-06-28T02:41:59.104Z,1012.91
2018-06-28T02:42:59.024Z,1012.90
2018-06-28T02:43:58.979Z,1012.90
2018-06-28T02:44:58.936Z,1012.92
2018-06-28T02:45:58.885Z,1012.91
2018-06-28T02:46:58.862Z,1012.90
2018-06-28T02:47:58.791Z,1012.90
2018-06-28T02:48:58.748Z,1012.91
2018-06-28T02:49:58.697Z,1012.91
2018-06-28T02:50:58.652Z,1012.91
2018-06-28T02:51:58.632Z,1012.90
2018-06-28T02:52:58.565Z,1012.87
2018-06-28T02:53:58.511Z,1012.88
2018-06-28T02:54:58.466Z,1012.91
2018-06-28T02:55:58.419Z,1012.87
2018-06-28T02:56:58.398Z,1012.84
2018-06-28T02:57:58.332Z,1012.90
2018-06-28T02:58:58.277Z,1012.86
2018-06-28T02:59:58.227Z,1012.85
2018-06-28T03:00:58.183Z,1012.87
2018-06-28T03:01:58.163Z,1012.89
2018-06-28T03:02:58.093Z,1012.87
2018-06-28T03:03:58.040Z,1012.89
2018-06-28T03:04:57.997Z,1012.91
2018-06-28T03:05:57.953Z,1012.93
2018-06-28T03:06:57.944Z,1012.92
2018-06-28T03:07:57.855Z,1012.94
2018-06-28T03:08:57.808Z,1012.96
2018-06-28T03:09:57.760Z,1012.93
2018-06-28T03:10:57.711Z,1012.95
2018-06-28T03:11:57.698Z,1012.99
2018-06-28T03:12:57.624Z,1012.94
2018-06-28T03:13:57.571Z,1012.95
2018-06-28T03:14:57.526Z,1012.93
2018-06-28T03:15:57.476Z,1012.96
2018-06-28T03:16:57.476Z,1012.93
2018-06-28T03:17:57.382Z,1012.97
2018-06-28T03:18:57.338Z,1012.94
2018-06-28T03:19:57.296Z,1012.92
2018-06-28T03:20:57.247Z,1012.97
2018-06-28T03:21:57.194Z,1012.99
2018-06-28T03:22:57.176Z,1013.03
2018-06-28T03:23:57.102Z,1013.02
2018-06-28T03:24:57.057Z,1013.00
2018-06-28T03:25:57.009Z,1013.01
2018-06-28T03:26:56.959Z,1012.99
2018-06-28T03:27:56.933Z,1012.99
2018-06-28T03:28:56.867Z,1012.97
2018-06-28T03:29:56.818Z,1013.00
2018-06-28T03:30:56.797Z,1012.96
2018-06-28T03:31:56.729Z,1012.96
2018-06-28T03:32:56.699Z,1012.98
2018-06-28T03:33:56.641Z,1012.97
2018-06-28T03:34:56.582Z,1012.96
2018-06-28T03:35:56.539Z,1012.93
2018-06-28T03:36:56.491Z,1012.97
2018-06-28T03:37:56.552Z,1012.99
2018-06-28T03:38:56.397Z,1012.97
2018-06-28T03:39:56.346Z,1012.96
2018-06-28T03:40:56.304Z,1012.96
2018-06-28T03:41:56.253Z,1012.98
2018-06-28T03:42:56.229Z,1012.98
2018-06-28T03:43:56.166Z,1013.00
2018-06-28T03:44:56.111Z,1012.98
2018-06-28T03:45:56.088Z,1012.96
2018-06-28T03:46:56.024Z,1012.95
2018-06-28T03:47:55.995Z,1012.93
2018-06-28T03:48:55.925Z,1012.94
2018-06-28T03:49:55.876Z,1012.94
2018-06-28T03:50:55.826Z,1012.91
2018-06-28T03:51:55.790Z,1012.94
2018-06-28T03:52:55.765Z,1012.96
2018-06-28T03:53:55.689Z,1012.96
2018-06-28T03:54:55.647Z,1012.95
2018-06-28T03:55:55.594Z,1012.93
2018-06-28T03:56:55.550Z,1012.94
2018-06-28T03:57:55.527Z,1012.93
2018-06-28T03:58:55.457Z,1012.95
2018-06-28T03:59:55.407Z,1012.96
2018-06-28T04:00:55.669Z,1012.95
2018-06-28T04:01:55.315Z,1012.98
2018-06-28T04:02:55.293Z,1012.97
2018-06-28T04:03:55.219Z,1012.97
2018-06-28T04:04:55.180Z,1012.95
2018-06-28T04:05:55.128Z,1012.96
2018-06-28T04:06:55.081Z,1013.00
2018-06-28T04:07:55.057Z,1013.03
2018-06-28T04:08:54.985Z,1012.96
2018-06-28T04:09:54.936Z,1012.99
2018-06-28T04:10:54.892Z,1012.94
2018-06-28T04:11:54.846Z,1012.93
2018-06-28T04:12:54.824Z,1012.93
2018-06-28T04:13:54.762Z,1012.93
2018-06-28T04:14:54.705Z,1012.94
2018-06-28T04:15:54.659Z,1012.97
2018-06-28T04:16:54.612Z,1012.97
2018-06-28T04:17:54.590Z,1012.97
2018-06-28T04:18:54.516Z,1013.01
2018-06-28T04:19:54.473Z,1012.99
2018-06-28T04:20:54.423Z,1012.97
2018-06-28T04:21:54.376Z,1013.03
2018-06-28T04:22:54.359Z,1013.04
2018-06-28T04:23:54.287Z,1013.00
2018-06-28T04:24:54.242Z,1012.98
2018-06-28T04:25:54.192Z,1013.05
2018-06-28T04:26:54.145Z,1013.04
2018-06-28T04:27:54.120Z,1013.05
2018-06-28T04:28:54.057Z,1013.07
2018-06-28T04:29:54.005Z,1013.07
2018-06-28T04:30:53.960Z,1013.09
2018-06-28T04:31:53.915Z,1013.09
2018-06-28T04:32:53.891Z,1013.08
2018-06-28T04:33:53.821Z,1013.09
2018-06-28T04:34:53.778Z,1013.14
2018-06-28T04:35:53.737Z,1013.15
2018-06-28T04:36:53.681Z,1013.19
2018-06-28T04:37:53.663Z,1013.17
2018-06-28T04:38:53.590Z,1013.16
2018-06-28T04:39:53.542Z,1013.19
2018-06-28T04:40:53.535Z,1013.15
2018-06-28T04:41:53.457Z,1013.16
2018-06-28T04:42:53.432Z,1013.16
2018-06-28T04:43:53.363Z,1013.16
2018-06-28T04:44:53.319Z,1013.10
2018-06-28T04:45:53.271Z,1013.08
2018-06-28T04:46:53.235Z,1013.10
2018-06-28T04:47:53.203Z,1013.07
2018-06-28T04:48:53.142Z,1013.07
2018-06-28T04:49:53.129Z,1013.03
2018-06-28T04:50:53.044Z,1013.02
2018-06-28T04:51:52.996Z,1013.06
2018-06-28T04:52:52.989Z,1013.02
2018-06-28T04:53:52.907Z,1013.01
2018-06-28T04:54:52.864Z,1012.97
2018-06-28T04:55:52.814Z,1012.97
2018-06-28T04:56:52.769Z,1012.94
2018-06-28T04:57:52.726Z,1012.93
2018-06-28T04:58:52.765Z,1012.95
2018-06-28T04:59:52.634Z,1012.95
2018-06-28T05:00:52.591Z,1012.90
2018-06-28T05:01:52.547Z,1012.92
2018-06-28T05:02:52.498Z,1012.93
2018-06-28T05:03:52.479Z,1012.93
2018-06-28T05:04:52.408Z,1012.95
2018-06-28T05:05:52.370Z,1012.98
2018-06-28T05:06:52.321Z,1012.94
2018-06-28T05:07:52.276Z,1012.97
2018-06-28T05:08:52.253Z,1012.98
2018-06-28T05:09:52.191Z,1012.96
2018-06-28T05:10:52.141Z,1012.97
2018-06-28T05:11:52.096Z,1012.98
2018-06-28T05:12:52.061Z,1012.97
2018-06-28T05:13:52.033Z,1012.97
2018-06-28T05:14:51.965Z,1012.95
2018-06-28T05:15:51.923Z,1012.94
2018-06-28T05:16:51.878Z,1012.99
2018-06-28T05:17:51.841Z,1012.96
2018-06-28T05:18:51.811Z,1012.97
2018-06-28T05:19:51.744Z,1013.00
2018-06-28T05:20:51.694Z,1012.97
2018-06-28T05:21:51.659Z,1013.05
2018-06-28T05:22:51.611Z,1013.00
2018-06-28T05:23:51.588Z,1013.01
2018-06-28T05:24:51.520Z,1012.94
2018-06-28T05:25:51.481Z,1012.97
2018-06-28T05:26:51.433Z,1012.98
2018-06-28T05:27:51.391Z,1012.95
2018-06-28T05:28:51.369Z,1012.99
2018-06-28T05:29:51.298Z,1012.96
2018-06-28T05:30:51.252Z,1012.99
2018-06-28T05:31:51.210Z,1013.01
2018-06-28T05:32:51.167Z,1013.01
2018-06-28T05:33:51.147Z,1012.98
2018-06-28T05:34:51.083Z,1012.98
2018-06-28T05:35:51.035Z,1012.99
2018-06-28T05:36:50.990Z,1012.95
2018-06-28T05:37:50.945Z,1012.94
2018-06-28T05:38:50.925Z,1012.92
2018-06-28T05:39:50.859Z,1012.94
2018-06-28T05:40:50.813Z,1012.93
2018-06-28T05:41:50.777Z,1012.94
2018-06-28T05:42:50.725Z,1012.94
2018-06-28T05:43:50.713Z,1012.96
2018-06-28T05:44:50.635Z,1012.98
2018-06-28T05:45:50.596Z,1013.00
2018-06-28T05:46:50.549Z,1012.99
2018-06-28T05:47:50.508Z,1013.00
2018-06-28T05:48:50.461Z,1013.01
2018-06-28T05:49:50.446Z,1013.04
2018-06-28T05:50:50.377Z,1013.02
2018-06-28T05:51:58.253Z,1013.00
2018-06-28T05:52:50.289Z,1013.02
2018-06-28T05:53:50.248Z,1013.01
2018-06-28T05:54:50.225Z,1013.00
2018-06-28T05:55:50.156Z,1013.04
2018-06-28T05:56:50.116Z,1013.01
2018-06-28T05:57:50.069Z,1013.03
2018-06-28T05:58:50.024Z,1013.03
2018-06-28T05:59:50.004Z,1013.03
2018-06-28T06:00:49.940Z,1013.05
2018-06-28T06:01:49.896Z,1013.01
2018-06-28T06:02:49.848Z,1013.02
2018-06-28T06:03:49.808Z,1013.03
2018-06-28T06:04:49.792Z,1013.05
2018-06-28T06:05:49.721Z,1013.03
2018-06-28T06:06:49.678Z,1013.05
2018-06-28T06:07:49.637Z,1013.03
2018-06-28T06:08:49.587Z,1013.03
2018-06-28T06:09:49.566Z,1013.06
2018-06-28T06:10:49.505Z,1013.05
2018-06-28T06:11:49.458Z,1013.06
2018-06-28T06:12:49.417Z,1013.07
2018-06-28T06:13:49.371Z,1013.09
2018-06-28T06:14:49.353Z,1013.08
2018-06-28T06:15:49.361Z,1013.08
2018-06-28T06:16:49.246Z,1013.05
2018-06-28T06:17:49.201Z,1013.05
2018-06-28T06:18:49.161Z,1013.08
2018-06-28T06:19:49.139Z,1013.07
2018-06-28T06:20:49.089Z,1013.06
2018-06-28T06:21:49.029Z,1013.08
2018-06-28T06:22:48.987Z,1013.08
2018-06-28T06:23:48.941Z,1013.09
2018-06-28T06:24:48.925Z,1013.07
2018-06-28T06:25:48.857Z,1013.11
2018-06-28T06:26:48.814Z,1013.08
2018-06-28T06:27:48.769Z,1013.10
2018-06-28T06:28:48.728Z,1013.08
2018-06-28T06:29:48.750Z,1013.10
2018-06-28T06:30:48.642Z,1013.07
2018-06-28T06:31:48.597Z,1013.06
2018-06-28T06:32:48.556Z,1013.04
2018-06-28T06:33:48.515Z,1013.08
2018-06-28T06:34:48.472Z,1013.00
2018-06-28T06:35:48.462Z,1013.05
2018-06-28T06:36:48.389Z,1013.11
2018-06-28T06:37:48.346Z,1013.06
2018-06-28T06:38:48.301Z,1013.12
2018-06-28T06:39:48.259Z,1013.10
2018-06-28T06:40:48.238Z,1013.08
2018-06-28T06:41:48.169Z,1013.08
2018-06-28T06:42:48.129Z,1013.06
2018-06-28T06:43:48.080Z,1013.09
2018-06-28T06:44:48.040Z,1013.09
2018-06-28T06:45:48.023Z,1013.05
2018-06-28T06:46:47.960Z,1013.06
2018-06-28T06:47:47.916Z,1013.07
2018-06-28T06:48:47.909Z,1013.07
2018-06-28T06:49:47.831Z,1013.04
2018-06-28T06:50:47.812Z,1013.00
2018-06-28T06:51:47.750Z,1013.00
2018-06-28T06:52:47.699Z,1013.04
2018-06-28T06:53:47.661Z,1013.07
2018-06-28T06:54:47.616Z,1013.02
2018-06-28T06:55:47.606Z,1013.09
2018-06-28T06:56:47.530Z,1013.10
2018-06-28T06:57:47.490Z,1013.08
2018-06-28T06:58:47.446Z,1013.13
2018-06-28T06:59:47.403Z,1013.09
2018-06-28T07:00:47.381Z,1013.07
2018-06-28T07:01:47.320Z,1013.09
2018-06-28T07:02:47.279Z,1013.11
2018-06-28T07:03:47.233Z,1013.10
2018-06-28T07:04:47.191Z,1013.10
2018-06-28T07:05:47.171Z,1013.15
2018-06-28T07:06:47.104Z,1013.10
2018-06-28T07:07:47.067Z,1013.13
2018-06-28T07:08:47.021Z,1013.13
2018-06-28T07:09:46.978Z,1013.11
2018-06-28T07:10:46.961Z,1013.15
2018-06-28T07:11:46.890Z,1013.14
2018-06-28T07:12:46.864Z,1013.11
2018-06-28T07:13:46.806Z,1013.10
2018-06-28T07:14:46.764Z,1013.15
2018-06-28T07:15:46.748Z,1013.15
2018-06-28T07:16:46.682Z,1013.13
2018-06-28T07:17:46.638Z,1013.13
2018-06-28T07:18:46.598Z,1013.11
2018-06-28T07:19:46.551Z,1013.11
2018-06-28T07:20:46.563Z,1013.11
2018-06-28T07:21:46.467Z,1013.11
2018-06-28T07:22:46.476Z,1013.11
2018-06-28T07:23:46.385Z,1013.10
2018-06-28T07:24:46.343Z,1013.10
2018-06-28T07:25:46.302Z,1013.12
2018-06-28T07:26:46.281Z,1013.14
2018-06-28T07:27:46.224Z,1013.15
2018-06-28T07:28:46.172Z,1013.11
2018-06-28T07:29:46.131Z,1013.19
2018-06-28T07:30:46.090Z,1013.15
2018-06-28T07:31:46.068Z,1013.18
2018-06-28T07:32:46.012Z,1013.16
2018-06-28T07:33:45.970Z,1013.14
2018-06-28T07:34:45.919Z,1013.12
2018-06-28T07:35:45.877Z,1013.16
2018-06-28T07:36:45.857Z,1013.11
2018-06-28T07:37:45.794Z,1013.16
2018-06-28T07:38:45.750Z,1013.18
2018-06-28T07:39:45.709Z,1013.11
2018-06-28T07:40:45.668Z,1013.12
2018-06-28T07:41:45.645Z,1013.15
2018-06-28T07:42:45.586Z,1013.13
2018-06-28T07:43:45.537Z,1013.17
2018-06-28T07:44:45.497Z,1013.19
2018-06-28T07:45:45.455Z,1013.17
2018-06-28T07:46:45.445Z,1013.15
2018-06-28T07:47:45.373Z,1013.17
2018-06-28T07:48:45.327Z,1013.20
2018-06-28T07:49:45.291Z,1013.18
2018-06-28T07:50:45.245Z,1013.14
2018-06-28T07:51:45.243Z,1013.17
2018-06-28T07:52:45.160Z,1013.15
2018-06-28T07:53:45.116Z,1013.14
2018-06-28T07:54:45.081Z,1013.08
2018-06-28T07:55:45.036Z,1013.14
2018-06-28T07:56:44.993Z,1013.14
2018-06-28T07:57:44.974Z,1013.09
2018-06-28T07:58:44.911Z,1013.07
2018-06-28T07:59:44.916Z,1013.02
2018-06-28T08:00:44.825Z,1013.09
2018-06-28T08:01:44.783Z,1013.08
2018-06-28T08:02:44.886Z,1013.09
2018-06-28T08:03:44.699Z,1013.12
2018-06-28T08:04:44.658Z,1013.11
2018-06-28T08:05:44.620Z,1013.11
2018-06-28T08:06:44.577Z,1013.10
2018-06-28T08:07:44.555Z,1013.09
2018-06-28T08:08:44.492Z,1013.10
2018-06-28T08:09:44.462Z,1013.09
2018-06-28T08:10:44.413Z,1013.10
2018-06-28T08:11:44.366Z,1013.08
2018-06-28T08:12:44.348Z,1013.08
2018-06-28T08:13:44.279Z,1013.03
2018-06-28T08:14:44.241Z,1013.08
2018-06-28T08:15:44.206Z,1013.11
2018-06-28T08:16:44.158Z,1013.07
2018-06-28T08:17:44.139Z,1013.09
2018-06-28T08:18:44.076Z,1013.05
2018-06-28T08:19:44.033Z,1013.08
2018-06-28T08:20:43.995Z,1013.08
2018-06-28T08:21:43.952Z,1013.07
2018-06-28T08:22:43.936Z,1013.08
2018-06-28T08:23:43.875Z,1013.08
2018-06-28T08:24:43.829Z,1012.99
2018-06-28T08:25:43.784Z,1013.07
2018-06-28T08:26:43.744Z,1013.09
2018-06-28T08:27:43.727Z,1013.10
2018-06-28T08:28:43.658Z,1013.11
2018-06-28T08:29:43.623Z,1013.10
2018-06-28T08:30:43.579Z,1013.11
2018-06-28T08:31:43.534Z,1013.12
2018-06-28T08:32:43.536Z,1013.08
2018-06-28T08:33:43.457Z,1013.08
2018-06-28T08:34:43.421Z,1013.10
2018-06-28T08:35:43.375Z,1013.08
2018-06-28T08:36:43.325Z,1013.03
2018-06-28T08:37:43.287Z,1013.03
2018-06-28T08:38:43.268Z,1013.01
2018-06-28T08:39:43.206Z,1013.03
2018-06-28T08:40:43.159Z,1013.00
2018-06-28T08:41:43.117Z,1013.02
2018-06-28T08:42:43.077Z,1013.10
2018-06-28T08:43:43.063Z,1013.05
2018-06-28T08:44:42.997Z,1013.05
2018-06-28T08:45:42.957Z,1013.02
2018-06-28T08:46:42.910Z,1012.97
2018-06-28T08:47:42.866Z,1013.05
2018-06-28T08:48:42.857Z,1012.96
2018-06-28T08:49:42.789Z,1012.96
2018-06-28T08:50:42.746Z,1012.96
2018-06-28T08:51:42.703Z,1012.95
2018-06-28T08:52:42.659Z,1012.95
2018-06-28T08:53:42.640Z,1012.91
2018-06-28T08:54:42.582Z,1012.89
2018-06-28T08:55:42.540Z,1012.91
2018-06-28T08:56:42.498Z,1012.88
2018-06-28T08:57:42.533Z,1012.90
2018-06-28T08:58:42.436Z,1012.93
2018-06-28T08:59:42.371Z,1012.88
2018-06-28T09:00:42.329Z,1012.88
2018-06-28T09:01:42.288Z,1012.86
2018-06-28T09:02:42.248Z,1012.84
2018-06-28T09:03:42.231Z,1012.86
2018-06-28T09:04:42.165Z,1012.85
2018-06-28T09:05:42.148Z,1012.89
2018-06-28T09:06:42.080Z,1012.85
2018-06-28T09:07:42.039Z,1012.85
2018-06-28T09:08:42.021Z,1012.82
2018-06-28T09:09:41.959Z,1012.82
2018-06-28T09:10:41.914Z,1012.79
2018-06-28T09:11:41.872Z,1012.73
2018-06-28T09:12:41.831Z,1012.73
2018-06-28T09:13:41.816Z,1012.69
2018-06-28T09:14:41.747Z,1012.77
2018-06-28T09:15:41.720Z,1012.79
2018-06-28T09:16:41.670Z,1012.89
2018-06-28T09:17:41.623Z,1012.82
2018-06-28T09:18:41.605Z,1012.80
2018-06-28T09:19:41.544Z,1012.85
2018-06-28T09:20:41.507Z,1012.82
2018-06-28T09:21:41.459Z,1012.81
2018-06-28T09:22:41.480Z,1012.78
2018-06-28T09:23:41.399Z,1012.80
2018-06-28T09:24:41.339Z,1012.83
2018-06-28T09:25:41.292Z,1012.84
2018-06-28T09:26:41.251Z,1012.80
2018-06-28T09:27:41.209Z,1012.77
2018-06-28T09:28:41.188Z,1012.76
2018-06-28T09:29:41.127Z,1012.75
2018-06-28T09:30:41.084Z,1012.80
2018-06-28T09:31:41.042Z,1012.72
2018-06-28T09:32:40.999Z,1012.70
2018-06-28T09:33:40.985Z,1012.72
2018-06-28T09:34:40.926Z,1012.71
2018-06-28T09:35:40.881Z,1012.66
2018-06-28T09:36:40.834Z,1012.68
2018-06-28T09:37:40.792Z,1012.69
2018-06-28T09:38:40.752Z,1012.64
2018-06-28T09:39:40.729Z,1012.73
2018-06-28T09:40:40.665Z,1012.72
2018-06-28T09:41:40.625Z,1012.71
2018-06-28T09:42:40.586Z,1012.66
2018-06-28T09:43:40.541Z,1012.70
2018-06-28T09:44:40.544Z,1012.62
2018-06-28T09:45:40.458Z,1012.60
2018-06-28T09:46:40.419Z,1012.71
2018-06-28T09:47:40.376Z,1012.63
2018-06-28T09:48:40.340Z,1012.59
2018-06-28T09:49:40.318Z,1012.59
2018-06-28T09:50:40.252Z,1012.61
2018-06-28T09:51:40.209Z,1012.54
2018-06-28T09:52:40.171Z,1012.65
2018-06-28T09:53:40.128Z,1012.53
2018-06-28T09:54:40.119Z,1012.49
2018-06-28T09:55:40.046Z,1012.66
2018-06-28T09:56:40.002Z,1012.59
2018-06-28T09:57:39.964Z,1012.52
2018-06-28T09:58:39.918Z,1012.50
2018-06-28T09:59:39.903Z,1012.47
2018-06-28T10:00:39.834Z,1012.51
2018-06-28T10:01:39.820Z,1012.46
2018-06-28T10:02:39.749Z,1012.46
2018-06-28T10:03:39.709Z,1012.43
2018-06-28T10:04:39.692Z,1012.47
2018-06-28T10:05:39.633Z,1012.47
2018-06-28T10:06:39.594Z,1012.42
2018-06-28T10:07:39.549Z,1012.39
2018-06-28T10:08:39.505Z,1012.44
2018-06-28T10:09:39.488Z,1012.43
2018-06-28T10:10:39.421Z,1012.45
2018-06-28T10:11:39.382Z,1012.44
2018-06-28T10:12:39.342Z,1012.44
2018-06-28T10:13:39.300Z,1012.42
2018-06-28T10:14:39.308Z,1012.41
2018-06-28T10:15:39.216Z,1012.44
2018-06-28T10:16:39.176Z,1012.50
2018-06-28T10:17:39.142Z,1012.52
2018-06-28T10:18:39.096Z,1012.47
2018-06-28T10:19:39.073Z,1012.46
2018-06-28T10:20:39.013Z,1012.50
2018-06-28T10:21:38.975Z,1012.53
2018-06-28T10:22:38.933Z,1012.50
2018-06-28T10:23:38.896Z,1012.52
2018-06-28T10:24:38.880Z,1012.47
2018-06-28T10:25:38.808Z,1012.43
2018-06-28T10:26:38.769Z,1012.46
2018-06-28T10:27:38.722Z,1012.40
2018-06-28T10:28:38.685Z,1012.35
2018-06-28T10:29:38.672Z,1012.36
2018-06-28T10:30:38.603Z,1012.36
2018-06-28T10:31:38.563Z,1012.42
2018-06-28T10:32:38.543Z,1012.36
2018-06-28T10:33:38.487Z,1012.36
2018-06-28T10:34:38.461Z,1012.31
2018-06-28T10:35:38.398Z,1012.36
2018-06-28T10:36:38.360Z,1012.34
2018-06-28T10:37:38.317Z,1012.22
2018-06-28T10:38:38.275Z,1012.29
2018-06-28T10:39:38.260Z,1012.30
2018-06-28T10:40:38.194Z,1012.31
2018-06-28T10:41:38.155Z,1012.25
2018-06-28T10:42:38.113Z,1012.23
2018-06-28T10:43:38.074Z,1012.22
2018-06-28T10:44:38.057Z,1012.22
2018-06-28T10:45:37.993Z,1012.31
2018-06-28T10:46:37.948Z,1012.19
2018-06-28T10:47:37.933Z,1012.19
2018-06-28T10:48:37.871Z,1012.11
2018-06-28T10:49:37.855Z,1012.07
2018-06-28T10:50:37.787Z,1012.11
2018-06-28T10:51:37.743Z,1012.07
2018-06-28T10:52:37.707Z,1012.00
2018-06-28T10:53:37.665Z,1011.96
2018-06-28T10:54:37.663Z,1012.04
2018-06-28T10:55:37.581Z,1012.05
2018-06-28T10:56:37.539Z,1011.98
2018-06-28T10:57:37.500Z,1012.03
2018-06-28T10:58:37.461Z,1012.01
2018-06-28T10:59:37.432Z,1012.05
2018-06-28T11:00:37.402Z,1012.04
2018-06-28T11:01:37.339Z,1011.97
2018-06-28T11:02:37.296Z,1011.98
2018-06-28T11:03:37.255Z,1011.96
2018-06-28T11:04:37.214Z,1011.94
2018-06-28T11:05:37.193Z,1011.93
2018-06-28T11:06:37.131Z,1011.94
2018-06-28T11:07:37.199Z,1011.95
2018-06-28T11:08:37.046Z,1011.90
2018-06-28T11:09:37.017Z,1011.94
2018-06-28T11:10:36.993Z,1011.92
2018-06-28T11:11:36.923Z,1011.96
2018-06-28T11:12:36.883Z,1011.90
2018-06-28T11:13:36.842Z,1011.89
2018-06-28T11:14:36.806Z,1011.89
2018-06-28T11:15:36.844Z,1011.86
2018-06-28T11:16:36.737Z,1011.88
2018-06-28T11:17:36.681Z,1011.87
2018-06-28T11:18:36.662Z,1011.87
2018-06-28T11:19:36.603Z,1011.80
2018-06-28T11:20:36.584Z,1011.76
2018-06-28T11:21:36.523Z,1011.76
2018-06-28T11:22:36.476Z,1011.71
2018-06-28T11:23:36.433Z,1011.70
2018-06-28T11:24:36.400Z,1011.74
2018-06-28T11:25:36.374Z,1011.72
2018-06-28T11:26:36.351Z,1011.70
2018-06-28T11:27:36.270Z,1011.72
2018-06-28T11:28:36.230Z,1011.70
2018-06-28T11:29:36.191Z,1011.70
2018-06-28T11:30:36.177Z,1011.73
2018-06-28T11:31:36.109Z,1011.58
2018-06-28T11:32:36.066Z,1011.59
2018-06-28T11:33:36.029Z,1011.57
2018-06-28T11:34:35.988Z,1011.56
2018-06-28T11:35:35.966Z,1011.54
2018-06-28T11:36:35.901Z,1011.58
2018-06-28T11:37:35.864Z,1011.56
2018-06-28T11:38:35.821Z,1011.59
2018-06-28T11:39:35.781Z,1011.59
2018-06-28T11:40:35.762Z,1011.61
2018-06-28T11:41:35.703Z,1011.64
2018-06-28T11:42:35.661Z,1011.63
2018-06-28T11:43:35.616Z,1011.62
2018-06-28T11:44:35.575Z,1011.65
2018-06-28T11:45:35.555Z,1011.60
2018-06-28T11:46:35.490Z,1011.55
2018-06-28T11:47:35.450Z,1011.53
2018-06-28T11:48:35.410Z,1011.52
2018-06-28T11:49:35.366Z,1011.59
2018-06-28T11:50:35.349Z,1011.55
2018-06-28T11:51:35.289Z,1011.53
2018-06-28T11:52:35.243Z,1011.52
2018-06-28T11:53:35.203Z,1011.51
2018-06-28T11:54:35.166Z,1011.47
2018-06-28T11:55:35.141Z,1011.44
2018-06-28T11:56:35.079Z,1011.43
2018-06-28T11:57:35.040Z,1011.49
2018-06-28T11:58:34.999Z,1011.54
2018-06-28T11:59:34.964Z,1011.49
2018-06-28T12:00:34.942Z,1011.46
2018-06-28T12:01:34.873Z,1011.43
2018-06-28T12:02:34.836Z,1011.44
2018-06-28T12:03:34.786Z,1011.46
2018-06-28T12:04:34.749Z,1011.44